createdAt,value
2018-12-19T00:02:16.373Z,97256.20
2018-12-19T00:04:57.912Z,97254.73
2018-12-19T00:07:39.896Z,97252.27
2018-12-19T00:10:14.692Z,97252.45
2018-12-19T00:12:45.658Z,97251.91
2018-12-19T00:15:28.807Z,97253.06
2018-12-19T00:18:09.899Z,97257.72
2018-12-19T00:20:42.319Z,97249.91
2018-12-19T00:23:15.267Z,97255.92
2018-12-19T00:25:57.131Z,97262.89
2018-12-19T00:28:38.900Z,97253.74
2018-12-19T00:31:12.395Z,97241.22
2018-12-19T00:33:53.964Z,97245.77
2018-12-19T00:36:35.925Z,97246.83
2018-12-19T00:39:09.802Z,97238.85
2018-12-19T00:41:42.481Z,97246.09
2018-12-19T00:44:24.296Z,97241.34
2018-12-19T00:47:06.108Z,97238.29
2018-12-19T00:49:41.689Z,97232.61
2018-12-19T00:52:16.591Z,97231.84
2018-12-19T00:55:01.915Z,97243.38
2018-12-19T00:57:43.711Z,97235.91
2018-12-19T01:00:19.156Z,97234.39
2018-12-19T01:02:50.008Z,97233.80
2018-12-19T01:05:28.994Z,97238.28
2018-12-19T01:08:04.001Z,97235.08
2018-12-19T01:10:39.384Z,97236.13
2018-12-19T01:13:23.261Z,97237.44
2018-12-19T01:16:04.609Z,97240.55
2018-12-19T01:18:45.690Z,97245.75
2018-12-19T01:21:18.786Z,97238.48
2018-12-19T01:24:00.464Z,97241.95
2018-12-19T01:26:42.443Z,97249.48
2018-12-19T01:29:15.697Z,97253.71
2018-12-19T01:31:57.605Z,97248.05
2018-12-19T01:34:29.180Z,97249.94
2018-12-19T01:37:10.944Z,97265.84
2018-12-19T01:39:44.392Z,97266.21
2018-12-19T01:42:26.270Z,97259.13
2018-12-19T01:45:08.110Z,97267.54
2018-12-19T01:47:50.282Z,97264.45
2018-12-19T01:50:23.490Z,97263.88
2018-12-19T01:53:05.391Z,97263.50
2018-12-19T01:55:48.639Z,97266.58
2018-12-19T01:58:30.280Z,97262.63
2018-12-19T02:01:02.718Z,97259.99
2018-12-19T02:03:44.579Z,97259.55
2018-12-19T02:06:26.656Z,97260.56
2018-12-19T02:09:08.455Z,97255.68
2018-12-19T02:11:50.435Z,97252.27
2018-12-19T02:14:23.540Z,97248.94
2018-12-19T02:16:58.424Z,97242.98
2018-12-19T02:19:31.095Z,97246.86
2018-12-19T02:22:13.093Z,97243.61
2018-12-19T02:24:44.128Z,97240.13
2018-12-19T02:27:26.171Z,97239.51
2018-12-19T02:29:58.607Z,97237.72
2018-12-19T02:32:31.548Z,97233.73
2018-12-19T02:35:05.020Z,97233.46
2018-12-19T02:37:46.688Z,97235.13
2018-12-19T02:40:19.740Z,97234.47
2018-12-19T02:42:52.495Z,97236.39
2018-12-19T02:45:33.954Z,97235.43
2018-12-19T02:48:15.823Z,97238.61
2018-12-19T02:50:48.153Z,97230.92
2018-12-19T02:53:30.376Z,97221.04
2018-12-19T02:56:12.160Z,97221.71
2018-12-19T02:58:54.041Z,97219.12
2018-12-19T03:01:35.092Z,97213.16
2018-12-19T03:04:17.082Z,97215.16
2018-12-19T03:07:00.034Z,97215.55
2018-12-19T03:09:32.616Z,97211.09
2018-12-19T03:12:07.922Z,97209.11
2018-12-19T03:14:49.367Z,97211.11
2018-12-19T03:17:22.411Z,97209.16
2018-12-19T03:19:54.862Z,97203.96
2018-12-19T03:22:36.715Z,97205.52
2018-12-19T03:25:18.620Z,97206.28
2018-12-19T03:27:51.804Z,97197.36
2018-12-19T03:30:24.782Z,97202.38
2018-12-19T03:33:06.600Z,97198.63
2018-12-19T03:35:48.519Z,97197.02
2018-12-19T03:38:30.352Z,97196.87
2018-12-19T03:41:06.163Z,97199.12
2018-12-19T03:43:47.239Z,97194.79
2018-12-19T03:46:28.429Z,97194.55
2018-12-19T03:49:10.260Z,97198.19
2018-12-19T03:51:52.196Z,97195.39
2018-12-19T03:54:25.512Z,97188.84
2018-12-19T03:57:11.979Z,97200.06
2018-12-19T03:59:45.203Z,97196.55
2018-12-19T04:02:26.968Z,97189.42
2018-12-19T04:05:08.808Z,97188.31
2018-12-19T04:07:44.412Z,97189.00
2018-12-19T04:10:16.964Z,97185.62
2018-12-19T04:12:59.039Z,97187.52
2018-12-19T04:15:40.740Z,97188.95
2018-12-19T04:18:13.899Z,97191.80
2018-12-19T04:20:46.988Z,97191.51
2018-12-19T04:23:29.036Z,97185.99
2018-12-19T04:26:10.843Z,97201.52
2018-12-19T04:28:52.866Z,97201.09
2018-12-19T04:31:34.852Z,97199.48
2018-12-19T04:34:16.655Z,97199.44
2018-12-19T04:36:58.668Z,97195.09
2018-12-19T04:39:31.901Z,97199.16
2018-12-19T04:42:13.805Z,97196.44
2018-12-19T04:44:55.975Z,97197.16
2018-12-19T04:47:42.915Z,97197.02
2018-12-19T04:50:15.352Z,97189.48
2018-12-19T04:52:57.127Z,97194.21
2018-12-19T04:55:39.300Z,97191.48
2018-12-19T04:58:21.062Z,97189.98
2018-12-19T05:00:54.119Z,97189.09
2018-12-19T05:03:35.205Z,97184.75
2018-12-19T05:06:11.959Z,97184.84
2018-12-19T05:08:53.304Z,97184.89
2018-12-19T05:11:35.488Z,97191.00
2018-12-19T05:14:11.020Z,97194.27
2018-12-19T05:16:52.779Z,97191.92
2018-12-19T05:19:23.806Z,97193.94
2018-12-19T05:22:05.828Z,97195.76
2018-12-19T05:24:47.796Z,97197.16
2018-12-19T05:27:29.844Z,97201.73
2018-12-19T05:30:02.689Z,97204.52
2018-12-19T05:32:37.408Z,97199.17
2018-12-19T05:35:18.828Z,97197.56
2018-12-19T05:37:53.148Z,97195.34
2018-12-19T05:40:26.200Z,97206.72
2018-12-19T05:43:07.302Z,97204.78
2018-12-19T05:45:49.144Z,97212.34
2018-12-19T05:48:22.315Z,97215.53
2018-12-19T05:51:06.192Z,97216.63
2018-12-19T05:53:48.063Z,97212.73
2018-12-19T05:56:23.367Z,97214.45
2018-12-19T05:59:08.943Z,97220.80
2018-12-19T06:01:50.854Z,97216.69
2018-12-19T06:04:44.240Z,97217.66
2018-12-19T06:07:26.105Z,97226.81
2018-12-19T06:09:58.851Z,97238.18
2018-12-19T06:12:40.732Z,97233.75
2018-12-19T06:15:22.640Z,97227.77
2018-12-19T06:18:04.527Z,97229.09
2018-12-19T06:20:38.027Z,97242.06
2018-12-19T06:23:21.765Z,97239.88
2018-12-19T06:26:03.739Z,97230.86
2018-12-19T06:28:45.491Z,97229.43
2018-12-19T06:31:18.788Z,97221.42
2018-12-19T06:34:00.779Z,97219.55
2018-12-19T06:36:42.576Z,97219.89
2018-12-19T06:39:15.036Z,97217.16
2018-12-19T06:41:56.543Z,97221.05
2018-12-19T06:44:31.568Z,97233.70
2018-12-19T06:47:13.132Z,97229.75
2018-12-19T06:49:46.162Z,97226.62
2018-12-19T06:52:28.144Z,97233.31
2018-12-19T06:55:09.935Z,97234.44
2018-12-19T06:57:51.816Z,97227.36
2018-12-19T07:00:33.847Z,97223.03
2018-12-19T07:03:15.662Z,97222.89
2018-12-19T07:05:51.096Z,97219.23
2018-12-19T07:08:32.677Z,97220.70
2018-12-19T07:11:05.707Z,97223.91
2018-12-19T07:13:47.424Z,97226.34
2018-12-19T07:16:29.366Z,97220.05
2018-12-19T07:19:23.840Z,97219.36
2018-12-19T07:22:05.213Z,97215.17
2018-12-19T07:24:47.369Z,97213.86
2018-12-19T07:27:28.927Z,97203.20
2018-12-19T07:30:02.174Z,97211.56
2018-12-19T07:32:44.091Z,97218.77
2018-12-19T07:35:19.631Z,97222.53
2018-12-19T07:37:52.500Z,97233.28
2018-12-19T07:40:28.183Z,97225.16
2018-12-19T07:43:09.578Z,97226.42
2018-12-19T07:45:50.874Z,97219.15
2018-12-19T07:48:33.599Z,97225.55
2018-12-19T07:51:06.171Z,97227.98
2018-12-19T07:53:47.965Z,97225.27
2018-12-19T07:56:30.235Z,97227.16
2018-12-19T07:59:11.804Z,97224.00
2018-12-19T08:01:52.960Z,97224.55
2018-12-19T08:04:28.565Z,97232.94
2018-12-19T08:07:09.948Z,97234.25
2018-12-19T08:09:45.432Z,97242.86
2018-12-19T08:12:16.291Z,97243.68
2018-12-19T08:15:02.772Z,97243.45
2018-12-19T08:17:44.214Z,97237.38
2018-12-19T08:20:17.345Z,97227.77
2018-12-19T08:22:59.352Z,97223.61
2018-12-19T08:25:30.570Z,97230.58
2018-12-19T08:28:12.618Z,97228.93
2018-12-19T08:30:45.787Z,97226.63
2018-12-19T08:33:18.836Z,97226.89
2018-12-19T08:36:00.843Z,97227.03
2018-12-19T08:38:42.120Z,97221.63
2018-12-19T08:41:15.132Z,97224.20
2018-12-19T08:43:46.305Z,97231.16
2018-12-19T08:46:28.091Z,97231.48
2018-12-19T08:49:09.216Z,97237.58
2018-12-19T08:51:51.098Z,97236.13
2018-12-19T08:54:32.927Z,97236.44
2018-12-19T08:57:14.778Z,97236.23
2018-12-19T08:59:47.956Z,97228.19
2018-12-19T09:02:29.850Z,97215.72
2018-12-19T09:05:05.140Z,97218.27
2018-12-19T09:07:46.315Z,97218.77
2018-12-19T09:10:19.320Z,97228.52
2018-12-19T09:12:50.535Z,97219.97
2018-12-19T09:15:36.785Z,97221.05
2018-12-19T09:18:19.125Z,97224.03
2018-12-19T09:20:51.815Z,97223.73
2018-12-19T09:23:33.484Z,97230.34
2018-12-19T09:26:14.566Z,97229.28
2018-12-19T09:28:56.508Z,97223.03
2018-12-19T09:31:27.748Z,97224.34
2018-12-19T09:34:09.745Z,97216.34
2018-12-19T09:36:51.719Z,97206.08
2018-12-19T09:39:24.763Z,97216.86
2018-12-19T09:42:06.719Z,97222.41
2018-12-19T09:44:48.711Z,97221.36
2018-12-19T09:47:30.659Z,97218.77
2018-12-19T09:50:02.991Z,97219.10
2018-12-19T09:52:44.125Z,97229.31
2018-12-19T09:55:25.799Z,97222.27
2018-12-19T09:58:07.543Z,97224.54
2018-12-19T10:00:40.739Z,97223.17
2018-12-19T10:03:22.654Z,97223.09
2018-12-19T10:05:53.663Z,97223.52
2018-12-19T10:08:35.600Z,97200.70
2018-12-19T10:11:08.528Z,97202.80
2018-12-19T10:13:41.617Z,97195.41
2018-12-19T10:16:23.279Z,97193.11
2018-12-19T10:18:55.642Z,97179.83
2018-12-19T10:21:37.631Z,97182.61
2018-12-19T10:24:21.447Z,97185.02
2018-12-19T10:27:02.744Z,97184.27
2018-12-19T10:29:35.799Z,97176.23
2018-12-19T10:32:17.575Z,97168.55
2018-12-19T10:34:48.960Z,97165.20
2018-12-19T10:37:30.745Z,97153.01
2018-12-19T10:40:04.099Z,97149.08
2018-12-19T10:42:46.044Z,97146.37
2018-12-19T10:45:32.120Z,97145.86
2018-12-19T10:48:14.015Z,97143.46
2018-12-19T10:50:46.419Z,97145.45
2018-12-19T10:53:21.105Z,97143.80
2018-12-19T10:56:02.692Z,97151.42
2018-12-19T10:58:44.595Z,97149.51
2018-12-19T11:01:17.672Z,97147.77
2018-12-19T11:03:59.746Z,97152.59
2018-12-19T11:06:40.887Z,97139.16
2018-12-19T11:09:12.019Z,97139.98
2018-12-19T11:11:54.009Z,97131.73
2018-12-19T11:14:36.016Z,97123.05
2018-12-19T11:17:18.025Z,97131.92
2018-12-19T11:19:53.733Z,97129.89
2018-12-19T11:22:28.864Z,97124.02
2018-12-19T11:25:10.228Z,97112.56
2018-12-19T11:27:52.096Z,97114.97
2018-12-19T11:30:25.191Z,97126.42
2018-12-19T11:33:06.412Z,97116.99
2018-12-19T11:35:47.557Z,97113.07
2018-12-19T11:38:29.467Z,97103.14
2018-12-19T11:41:02.616Z,97100.33
2018-12-19T11:43:43.815Z,97104.04
2018-12-19T11:46:25.582Z,97094.75
2018-12-19T11:49:07.283Z,97105.66
2018-12-19T11:51:49.126Z,97104.33
2018-12-19T11:54:30.215Z,97096.06
2018-12-19T11:57:12.343Z,97084.25
2018-12-19T11:59:45.200Z,97077.17
2018-12-19T12:02:26.976Z,97089.27
2018-12-19T12:05:09.008Z,97097.65
2018-12-19T12:07:50.068Z,97102.73
2018-12-19T12:10:23.308Z,97099.03
2018-12-19T12:13:05.313Z,97095.56
2018-12-19T12:15:46.376Z,97086.20
2018-12-19T12:18:17.379Z,97080.50
2018-12-19T12:20:49.759Z,97081.20
2018-12-19T12:23:31.639Z,97076.47
2018-12-19T12:26:03.008Z,97068.18
2018-12-19T12:28:44.860Z,97067.22
2018-12-19T12:31:17.268Z,97072.66
2018-12-19T12:33:59.055Z,97071.70
2018-12-19T12:36:40.472Z,97059.53
2018-12-19T12:39:11.695Z,97051.68
2018-12-19T12:41:52.788Z,97039.42
2018-12-19T12:44:24.108Z,97041.80
2018-12-19T12:47:05.785Z,97032.63
2018-12-19T12:49:38.920Z,97038.05
2018-12-19T12:52:10.110Z,97025.69
2018-12-19T12:54:51.684Z,97025.11
2018-12-19T12:57:24.016Z,97021.86
2018-12-19T12:59:57.119Z,97026.11
2018-12-19T13:02:30.273Z,97014.44
2018-12-19T13:05:12.183Z,97010.73
2018-12-19T13:07:54.310Z,97007.95
2018-12-19T13:10:26.645Z,96994.10
2018-12-19T13:13:08.427Z,96992.23
2018-12-19T13:15:50.423Z,96997.86
2018-12-19T13:18:25.895Z,96989.36
2018-12-19T13:20:56.313Z,96982.23
2018-12-19T13:23:38.235Z,96985.78
2018-12-19T13:26:14.034Z,96979.69
2018-12-19T13:28:55.364Z,96968.84
2018-12-19T13:31:37.106Z,96963.38
2018-12-19T13:34:18.776Z,96955.56
2018-12-19T13:36:51.876Z,96943.70
2018-12-19T13:39:24.946Z,96951.05
2018-12-19T13:41:58.005Z,96937.48
2018-12-19T13:44:40.110Z,96934.21
2018-12-19T13:47:11.127Z,96933.25
2018-12-19T13:49:43.499Z,96918.83
2018-12-19T13:52:25.420Z,96918.30
2018-12-19T13:55:07.295Z,96903.59
2018-12-19T13:57:49.162Z,96903.03
2018-12-19T14:00:22.431Z,96893.55
2018-12-19T14:03:04.291Z,96893.98
2018-12-19T14:05:39.935Z,96885.41
2018-12-19T14:11:12.197Z,96874.13
2018-12-19T14:13:54.143Z,96879.59
2018-12-19T14:16:36.159Z,96870.86
2018-12-19T14:19:09.402Z,96877.63
2018-12-19T14:21:45.259Z,96877.12
2018-12-19T14:24:26.552Z,96879.95
2018-12-19T14:26:57.762Z,96885.28
2018-12-19T14:29:30.831Z,96878.53
2018-12-19T14:32:12.820Z,96880.49
2018-12-19T14:37:54.472Z,96871.16
2018-12-19T14:40:27.889Z,96864.91
2018-12-19T14:43:09.520Z,96866.56
2018-12-19T14:45:40.706Z,96858.45
2018-12-19T14:48:21.888Z,96857.41
2018-12-19T14:50:55.145Z,96850.83
2018-12-19T14:53:36.794Z,96833.91
2018-12-19T14:56:12.302Z,96827.52
2018-12-19T14:58:53.941Z,96821.66
2018-12-19T15:01:29.515Z,96817.37
2018-12-19T15:04:04.891Z,96819.75
2018-12-19T15:06:47.078Z,96826.75
2018-12-19T15:09:20.028Z,96842.66
2018-12-19T15:11:53.186Z,96843.63
2018-12-19T15:17:25.609Z,96853.86
2018-12-19T15:19:58.848Z,96852.63
2018-12-19T15:22:40.571Z,96846.55
2018-12-19T15:25:22.719Z,96846.41
2018-12-19T15:28:04.519Z,96854.66
2018-12-19T15:30:40.175Z,96860.06
2018-12-19T15:33:21.723Z,96866.14
2018-12-19T15:36:03.203Z,96867.98
2018-12-19T15:41:38.427Z,96873.88
2018-12-19T15:44:19.672Z,96876.86
2018-12-19T15:47:03.826Z,96871.47
2018-12-19T15:49:40.436Z,96881.30
2018-12-19T15:52:26.959Z,96890.33
2018-12-19T15:55:14.739Z,96883.49
2018-12-19T15:57:49.633Z,96873.72
2018-12-19T16:00:24.915Z,96880.61
2018-12-19T16:02:58.223Z,96889.78
2018-12-19T16:05:40.189Z,96895.95
2018-12-19T16:08:22.114Z,96902.91
2018-12-19T16:11:04.523Z,96915.61
2018-12-19T16:13:46.691Z,96920.16
2018-12-19T16:16:33.285Z,96919.72
2018-12-19T16:22:05.447Z,96918.64
2018-12-19T16:24:42.864Z,96923.82
2018-12-19T16:27:26.299Z,96937.47
2018-12-19T16:30:00.103Z,96936.09
2018-12-19T16:32:42.074Z,96937.63
2018-12-19T16:35:23.403Z,96935.86
2018-12-19T16:37:59.410Z,96940.72
2018-12-19T16:40:33.465Z,96949.74
2018-12-19T16:43:16.293Z,96960.58
2018-12-19T16:45:58.363Z,96959.80
2018-12-19T16:48:40.104Z,96956.28
2018-12-19T16:51:13.262Z,96963.39
2018-12-19T16:53:55.044Z,96967.00
2018-12-19T16:56:37.431Z,96965.67
2018-12-19T16:59:08.700Z,96972.41
2018-12-19T17:01:50.399Z,96975.72
2018-12-19T17:04:32.096Z,96975.39
2018-12-19T17:07:14.484Z,96981.02
2018-12-19T17:09:48.428Z,96984.77
2018-12-19T17:12:30.172Z,96990.52
2018-12-19T17:15:05.845Z,96990.17
2018-12-19T17:17:46.985Z,96997.26
2018-12-19T17:20:20.028Z,96999.13
2018-12-19T17:23:02.056Z,97003.73
2018-12-19T17:25:43.958Z,97001.02
2018-12-19T17:28:26.597Z,97010.66
2018-12-19T17:30:58.985Z,97006.33
2018-12-19T17:33:40.780Z,97010.55
2018-12-19T17:36:22.532Z,97016.82
2018-12-19T17:42:04.165Z,97018.58
2018-12-19T17:44:36.435Z,97020.51
2018-12-19T17:47:20.399Z,97022.92
2018-12-19T17:49:53.336Z,97020.76
2018-12-19T17:52:23.839Z,97022.94
2018-12-19T17:55:05.795Z,97030.78
2018-12-19T17:57:47.555Z,97037.73
2018-12-19T18:00:23.648Z,97041.16
2018-12-19T18:03:05.560Z,97045.96
2018-12-19T18:05:36.747Z,97048.27
2018-12-19T18:08:12.077Z,97050.16
2018-12-19T18:10:44.867Z,97052.42
2018-12-19T18:13:26.731Z,97055.09
2018-12-19T18:16:08.548Z,97048.88
2018-12-19T18:18:50.556Z,97043.55
2018-12-19T18:21:21.884Z,97045.20
2018-12-19T18:24:03.666Z,97048.73
2018-12-19T18:26:45.532Z,97039.91
2018-12-19T18:29:20.232Z,97036.95
2018-12-19T18:32:01.925Z,97041.59
2018-12-19T18:34:44.818Z,97042.47
2018-12-19T18:37:26.664Z,97044.37
2018-12-19T18:40:03.600Z,97039.78
2018-12-19T18:42:44.900Z,97048.25
2018-12-19T18:45:28.455Z,97042.69
2018-12-19T18:48:10.040Z,97051.67
2018-12-19T18:53:38.560Z,97043.74
2018-12-19T18:56:20.705Z,97044.88
2018-12-19T18:59:00.530Z,97036.75
2018-12-19T19:01:42.449Z,97035.14
2018-12-19T19:04:25.421Z,97032.17
2018-12-19T19:06:58.544Z,97031.11
2018-12-19T19:09:31.283Z,97029.39
2018-12-19T19:12:05.888Z,97020.41
2018-12-19T19:14:52.380Z,97017.09
2018-12-19T19:17:25.712Z,97017.59
2018-12-19T19:19:58.975Z,97013.52
2018-12-19T19:22:34.379Z,97019.41
2018-12-19T19:25:18.588Z,97017.55
2018-12-19T19:28:00.732Z,97009.14
2018-12-19T19:30:37.040Z,97008.28
2018-12-19T19:33:22.412Z,97008.45
2018-12-19T19:36:10.174Z,97010.21
2018-12-19T19:38:51.447Z,97016.38
2018-12-19T19:41:27.027Z,97014.92
2018-12-19T19:44:08.251Z,97011.02
2018-12-19T19:46:52.468Z,97017.64
2018-12-19T19:49:26.259Z,97011.72
2018-12-19T19:52:07.828Z,97003.69
2018-12-19T19:54:56.079Z,97011.73
2018-12-19T19:57:37.532Z,97004.50
2018-12-19T20:00:12.067Z,97006.69
2018-12-19T20:02:43.871Z,96998.66
2018-12-19T20:05:31.518Z,96996.81
2018-12-19T20:08:15.130Z,96996.38
2018-12-19T20:10:48.467Z,96996.40
2018-12-19T20:13:33.293Z,97003.60
2018-12-19T20:16:17.142Z,97000.67
2018-12-19T20:19:01.245Z,97002.45
2018-12-19T20:21:43.169Z,97006.78
2018-12-19T20:24:29.080Z,97004.64
2018-12-19T20:27:00.243Z,97008.08
2018-12-19T20:29:34.470Z,96996.59
2018-12-19T20:32:10.073Z,96999.86
2018-12-19T20:34:55.812Z,96998.89
2018-12-19T20:37:38.445Z,97002.75
2018-12-19T20:40:11.632Z,97005.52
2018-12-19T20:42:53.425Z,97007.02
2018-12-19T20:45:35.194Z,97003.74
2018-12-19T20:48:19.114Z,97008.95
2018-12-19T20:50:52.252Z,97011.09
2018-12-19T20:53:34.135Z,97007.47
2018-12-19T20:56:16.195Z,97021.08
2018-12-19T20:58:58.291Z,97011.85
2018-12-19T21:01:46.502Z,97004.38
2018-12-19T21:04:21.558Z,97007.81
2018-12-19T21:06:56.527Z,97002.31
2018-12-19T21:09:37.082Z,97000.55
2018-12-19T21:12:22.496Z,97004.94
2018-12-19T21:15:04.989Z,97003.75
2018-12-19T21:17:51.703Z,97009.59
2018-12-19T21:20:28.650Z,97006.63
2018-12-19T21:23:11.667Z,97008.69
2018-12-19T21:25:43.595Z,96998.83
2018-12-19T21:28:16.562Z,96994.89
2018-12-19T21:30:58.341Z,96992.27
2018-12-19T21:33:40.180Z,96986.51
2018-12-19T21:36:15.740Z,96992.42
2018-12-19T21:38:57.379Z,96997.03
2018-12-19T21:41:32.827Z,97005.72
2018-12-19T21:44:14.564Z,97011.33
2018-12-19T21:46:50.367Z,97010.05
2018-12-19T21:49:24.212Z,97013.14
2018-12-19T21:52:05.894Z,97019.58
2018-12-19T21:54:41.508Z,97017.16
2018-12-19T21:57:12.389Z,97022.56
2018-12-19T21:59:45.298Z,97024.50
2018-12-19T22:02:26.404Z,97023.70
2018-12-19T22:05:08.461Z,97022.71
2018-12-19T22:07:50.369Z,97023.69
2018-12-19T22:10:23.873Z,97020.95
2018-12-19T22:13:05.604Z,97019.59
2018-12-19T22:15:53.623Z,97014.30
2018-12-19T22:18:47.159Z,97017.20
2018-12-19T22:21:22.392Z,97026.47
2018-12-19T22:24:03.744Z,97024.92
2018-12-19T22:26:46.665Z,97020.43
2018-12-19T22:29:19.683Z,97019.82
2018-12-19T22:31:50.971Z,97022.64
2018-12-19T22:34:32.719Z,97026.63
2018-12-19T22:37:10.438Z,97020.02
2018-12-19T22:39:42.995Z,97024.70
2018-12-19T22:42:31.024Z,97020.82
2018-12-19T22:45:12.998Z,97030.27
2018-12-19T22:47:50.602Z,97026.35
2018-12-19T22:50:24.211Z,97020.23
2018-12-19T22:52:55.477Z,97021.13
2018-12-19T22:55:36.818Z,97020.22
2018-12-19T22:58:07.901Z,97023.79
2018-12-19T23:00:48.891Z,97019.73
2018-12-19T23:03:22.099Z,97017.64
2018-12-19T23:05:52.657Z,97021.31
2018-12-19T23:08:23.869Z,97016.97
2018-12-19T23:10:58.093Z,97021.64
2018-12-19T23:13:39.879Z,97013.67
2018-12-19T23:16:12.686Z,97015.03
2018-12-19T23:19:01.253Z,97011.77
2018-12-19T23:21:42.848Z,97015.33
2018-12-19T23:24:24.492Z,97008.11
2018-12-19T23:27:22.551Z,97014.27
2018-12-19T23:29:55.375Z,97012.12
2018-12-19T23:32:36.923Z,97016.36
2018-12-19T23:35:10.636Z,97013.47
2018-12-19T23:37:52.175Z,97015.00
2018-12-19T23:40:35.462Z,97018.30
2018-12-19T23:43:06.475Z,97016.69
2018-12-19T23:45:48.065Z,97013.20
2018-12-19T23:48:19.086Z,97016.19
2018-12-19T23:50:52.297Z,97022.55
2018-12-19T23:53:34.226Z,97022.41
2018-12-19T23:56:09.737Z,97026.86
2018-12-19T23:58:51.352Z,97021.14
